Terminal Aerodrome Forecast
Issued by NWS

Home | Current Version | Previous Version | Text Only | Print | Product List | Glossary On
Versions: 1 2 3 4 5 6 7 8 9 10 11 12 13 14 15 16 17 18 19 20 21 22 23 24 25 26 27 28 29 30 31
000
FTUS44 KHGX 240639 AAA
TAFIAH
TAF AMD
KIAH 240639Z 2407/2512 17010KT P6SM BKN016
     FM241000 18006KT P6SM BKN007
     FM241500 18010KT P6SM BKN015
     FM241800 18012KT P6SM SCT050
     FM250200 18007KT 6SM BR SCT040
     FM250600 32003KT P6SM SCT050=

USA.gov is the U.S. government's official web portal to all federal, state and local government web resources and services.